Time;durP1;ratioP1;P1;durP2;ratioP2;P2;SDS_P1;SDS_P2;PMS_P1;PMS_P2;Temp;Humidity;BMP_temperature;BMP_pressure;BME280_temperature;BME280_humidity;BME280_pressure;Samples;Min_cycle;Max_cycle;Signal;HPM_P1;HPM_P2
2023/11/30 00:02:12;;;;;;;10.32;6.50;;;1.10;73.70;;;;;;4956818;28;20156;-74
2023/11/30 00:04:38;;;;;;;9.32;5.78;;;1.10;74.00;;;;;;4956210;28;20034;-73
2023/11/30 00:07:09;;;;;;;9.02;5.53;;;1.00;74.10;;;;;;4956913;28;20023;-73
2023/11/30 00:09:38;;;;;;;10.93;5.88;;;0.90;74.20;;;;;;4956708;28;20114;-74
2023/11/30 00:12:04;;;;;;;9.65;5.55;;;0.90;74.40;;;;;;4956594;28;20035;-74
2023/11/30 00:14:30;;;;;;;12.30;4.78;;;1.00;74.60;;;;;;4956753;28;20515;-74
2023/11/30 00:16:56;;;;;;;8.60;4.93;;;0.90;74.70;;;;;;4956746;28;20031;-73
2023/11/30 00:19:21;;;;;;;9.77;6.07;;;0.90;74.80;;;;;;4956493;28;20030;-74
2023/11/30 00:21:47;;;;;;;8.63;5.97;;;0.90;74.80;;;;;;4956791;28;20023;-74
2023/11/30 00:24:12;;;;;;;9.02;5.53;;;0.90;74.70;;;;;;4973895;28;20081;-74
2023/11/30 00:26:38;;;;;;;10.70;5.80;;;1.00;74.50;;;;;;4956892;28;20056;-74
2023/11/30 00:29:04;;;;;;;9.98;5.95;;;0.90;74.40;;;;;;4956804;28;20023;-74
2023/11/30 00:31:29;;;;;;;9.07;5.88;;;0.90;74.40;;;;;;4956230;28;20081;-74
2023/11/30 00:33:55;;;;;;;10.85;5.95;;;0.90;74.70;;;;;;4973760;28;20027;-74
2023/11/30 00:36:20;;;;;;;9.55;6.07;;;0.90;74.70;;;;;;4957597;28;20030;-74
2023/11/30 00:38:46;;;;;;;12.75;6.20;;;0.90;74.60;;;;;;4977709;28;20124;-74
2023/11/30 00:41:15;;;;;;;10.15;6.80;;;1.00;74.50;;;;;;4960423;28;20105;-73
2023/11/30 00:43:41;;;;;;;9.15;6.35;;;1.00;74.50;;;;;;4960450;28;20062;-74
2023/11/30 00:46:09;;;;;;;9.98;6.18;;;1.10;74.30;;;;;;4960401;28;20472;-74
2023/11/30 00:48:34;;;;;;;12.23;6.38;;;1.10;74.30;;;;;;4960389;28;20038;-74
2023/11/30 00:51:00;;;;;;;10.65;5.90;;;1.10;73.80;;;;;;4977444;28;20388;-73
2023/11/30 00:53:25;;;;;;;12.02;5.85;;;1.10;73.70;;;;;;4960241;28;20045;-73
2023/11/30 00:55:51;;;;;;;10.48;5.90;;;1.10;73.60;;;;;;4960294;28;20031;-73
2023/11/30 00:58:16;;;;;;;11.20;6.53;;;1.10;73.40;;;;;;4960192;28;20031;-73
2023/11/30 01:00:42;;;;;;;13.15;7.22;;;1.10;73.50;;;;;;4960160;28;20042;-74
2023/11/30 01:03:07;;;;;;;13.13;6.43;;;1.10;73.60;;;;;;4959951;28;20031;-74
2023/11/30 01:05:33;;;;;;;13.25;7.70;;;1.10;73.60;;;;;;4976898;28;20077;-73
2023/11/30 01:07:58;;;;;;;14.13;7.78;;;1.20;73.40;;;;;;4943979;28;20369;-73
2023/11/30 01:10:24;;;;;;;17.02;7.93;;;1.10;73.40;;;;;;4959809;28;20054;-73
2023/11/30 01:12:50;;;;;;;12.55;7.03;;;1.10;73.70;;;;;;4956515;29;20047;-72
2023/11/30 01:15:15;;;;;;;12.60;6.75;;;1.10;73.90;;;;;;4956608;29;20019;-73
2023/11/30 01:17:41;;;;;;;11.13;6.10;;;1.00;73.80;;;;;;4956541;29;20165;-73
2023/11/30 01:20:07;;;;;;;11.23;6.78;;;1.00;73.90;;;;;;4957500;29;20065;-73
2023/11/30 01:22:32;;;;;;;13.05;7.32;;;1.00;73.80;;;;;;4957373;28;20023;-73
2023/11/30 01:24:58;;;;;;;14.85;8.27;;;1.00;74.00;;;;;;4957264;29;20046;-74
2023/11/30 01:27:24;;;;;;;15.30;7.78;;;0.90;74.10;;;;;;4957520;28;20019;-73
2023/11/30 01:29:49;;;;;;;13.75;7.88;;;0.90;74.30;;;;;;4957350;29;20035;-73
2023/11/30 01:32:16;;;;;;;12.77;8.02;;;0.90;74.30;;;;;;4957407;29;20516;-73
2023/11/30 01:34:42;;;;;;;13.38;7.85;;;0.90;74.50;;;;;;4957616;28;20031;-73
2023/11/30 01:37:07;;;;;;;13.73;7.68;;;0.90;74.60;;;;;;4957296;29;20028;-73
2023/11/30 01:39:32;;;;;;;14.13;7.68;;;0.90;75.30;;;;;;4956005;29;20026;-73
2023/11/30 01:41:58;;;;;;;13.38;7.80;;;0.90;74.60;;;;;;4957174;29;20023;-73
2023/11/30 01:44:23;;;;;;;14.23;6.85;;;0.80;74.60;;;;;;4957118;29;20071;-73
2023/11/30 01:46:49;;;;;;;13.73;7.05;;;0.80;74.60;;;;;;4957162;29;20045;-74
2023/11/30 01:49:15;;;;;;;12.93;7.38;;;0.80;74.70;;;;;;4955890;28;20368;-73
2023/11/30 01:51:41;;;;;;;13.63;6.88;;;0.80;74.70;;;;;;4957029;29;20038;-73
2023/11/30 01:54:08;;;;;;;11.05;6.35;;;0.80;74.80;;;;;;4955746;28;20027;-74
2023/11/30 01:56:36;;;;;;;10.80;6.38;;;0.80;74.90;;;;;;4957048;28;20027;-75
2023/11/30 01:59:02;;;;;;;14.27;6.53;;;0.80;74.90;;;;;;4956927;28;20031;-75
2023/11/30 02:01:28;;;;;;;12.13;6.47;;;0.80;74.70;;;;;;4956831;28;20078;-74
2023/11/30 02:03:54;;;;;;;9.95;6.07;;;0.70;74.80;;;;;;4956745;28;20039;-74
2023/11/30 02:06:20;;;;;;;13.20;6.65;;;0.70;74.90;;;;;;4956385;29;20376;-75
2023/11/30 02:08:45;;;;;;;16.13;6.85;;;0.60;75.20;;;;;;4955543;29;20035;-74
2023/11/30 02:11:12;;;;;;;14.18;7.28;;;0.60;75.50;;;;;;4955404;29;20098;-74
2023/11/30 02:13:37;;;;;;;15.07;7.15;;;0.60;75.70;;;;;;4969939;28;20070;-74
2023/11/30 02:16:04;;;;;;;12.82;7.13;;;0.60;76.00;;;;;;4975920;28;20113;-75
2023/11/30 02:18:30;;;;;;;13.18;7.80;;;0.60;76.10;;;;;;4975707;28;20042;-74
2023/11/30 02:20:56;;;;;;;15.40;7.25;;;0.50;76.20;;;;;;4975794;28;20027;-74
2023/11/30 02:23:21;;;;;;;11.30;6.63;;;0.50;76.50;;;;;;4958468;28;20038;-76
2023/11/30 02:25:47;;;;;;;15.77;8.07;;;0.50;76.60;;;;;;4975700;28;20023;-77
2023/11/30 02:28:18;;;;;;;13.45;6.30;;;0.50;76.50;;;;;;4975720;28;20042;-75
2023/11/30 02:30:49;;;;;;;13.05;7.03;;;0.50;76.50;;;;;;4975658;28;20041;-74
2023/11/30 02:33:15;;;;;;;12.43;7.38;;;0.50;76.30;;;;;;4975643;28;20109;-74
2023/11/30 02:35:41;;;;;;;11.10;6.45;;;0.50;76.50;;;;;;4977692;28;20445;-75
2023/11/30 02:38:06;;;;;;;12.48;7.40;;;0.50;76.60;;;;;;4980559;28;20085;-75
2023/11/30 02:40:32;;;;;;;13.88;6.93;;;0.50;76.50;;;;;;4962029;28;20118;-74
2023/11/30 02:42:57;;;;;;;13.30;6.25;;;0.50;76.80;;;;;;4958245;28;20031;-73
2023/11/30 02:45:23;;;;;;;11.02;5.85;;;0.60;76.80;;;;;;4958103;28;20153;-73
2023/11/30 02:47:48;;;;;;;9.48;5.50;;;0.50;76.80;;;;;;4958335;28;20027;-73
2023/11/30 02:50:14;;;;;;;11.23;6.35;;;0.50;76.70;;;;;;4958298;28;20038;-73
2023/11/30 02:52:39;;;;;;;13.32;6.82;;;0.50;76.60;;;;;;4957837;28;20038;-73
2023/11/30 02:55:06;;;;;;;14.52;6.47;;;0.60;76.40;;;;;;4957805;28;20527;-74
2023/11/30 02:57:31;;;;;;;10.40;6.68;;;0.60;76.60;;;;;;4975026;28;20033;-74
2023/11/30 02:59:57;;;;;;;11.27;5.50;;;0.60;76.70;;;;;;4957586;28;20475;-73
2023/11/30 03:02:22;;;;;;;15.25;6.35;;;0.60;76.60;;;;;;4957911;28;20030;-73
2023/11/30 03:04:48;;;;;;;12.65;6.78;;;0.60;76.30;;;;;;4957890;28;20581;-74
2023/11/30 03:07:13;;;;;;;10.68;6.60;;;0.70;76.40;;;;;;4974970;28;20033;-74
2023/11/30 03:09:39;;;;;;;12.77;7.35;;;0.80;76.10;;;;;;4957606;28;20053;-74
2023/11/30 03:12:05;;;;;;;13.75;8.00;;;0.80;76.10;;;;;;4957498;28;20081;-74
2023/11/30 03:14:30;;;;;;;12.77;8.57;;;0.90;76.00;;;;;;4957705;28;20027;-74
2023/11/30 03:16:57;;;;;;;14.23;9.55;;;0.90;75.90;;;;;;4957635;28;20484;-74
2023/11/30 03:19:22;;;;;;;13.85;9.55;;;0.90;75.80;;;;;;4957668;28;20022;-74
2023/11/30 03:21:52;;;;;;;16.60;9.35;;;0.90;75.70;;;;;;4957534;28;20426;-74
2023/11/30 03:24:18;;;;;;;15.30;9.15;;;0.90;75.70;;;;;;4957350;28;20050;-74
2023/11/30 03:26:44;;;;;;;14.77;9.95;;;0.90;75.50;;;;;;4957428;28;20053;-74
2023/11/30 03:29:09;;;;;;;15.52;8.80;;;0.90;75.50;;;;;;4957344;28;20071;-74
2023/11/30 03:31:35;;;;;;;15.40;9.43;;;0.90;75.60;;;;;;4957202;28;20058;-74
2023/11/30 03:34:01;;;;;;;17.70;9.60;;;1.00;75.60;;;;;;4957452;28;20176;-74
2023/11/30 03:36:27;;;;;;;18.95;9.75;;;1.00;75.40;;;;;;4957173;28;20033;-74
2023/11/30 03:38:55;;;;;;;18.67;11.20;;;1.00;75.40;;;;;;4957275;28;20030;-74
2023/11/30 03:41:21;;;;;;;13.43;9.30;;;1.00;75.10;;;;;;4957166;28;20070;-74
2023/11/30 03:43:47;;;;;;;16.58;10.02;;;1.00;74.60;;;;;;4957118;28;20035;-74
2023/11/30 03:46:13;;;;;;;15.02;8.98;;;1.10;74.40;;;;;;4957101;28;20486;-74
2023/11/30 03:48:39;;;;;;;15.13;8.32;;;1.20;73.60;;;;;;4957230;28;20027;-74
2023/11/30 03:51:05;;;;;;;15.27;8.63;;;1.30;73.50;;;;;;4956934;28;20033;-75
2023/11/30 03:53:30;;;;;;;15.55;7.97;;;1.40;73.10;;;;;;4957066;28;20038;-74
2023/11/30 03:55:58;;;;;;;12.95;8.90;;;1.40;72.90;;;;;;4956964;28;20057;-73
2023/11/30 03:58:23;;;;;;;12.82;7.95;;;1.50;72.70;;;;;;4957043;28;20027;-73
2023/11/30 04:00:50;;;;;;;17.05;9.52;;;1.70;72.50;;;;;;4956995;28;20483;-74
2023/11/30 04:03:15;;;;;;;12.88;7.88;;;1.70;70.80;;;;;;4956858;28;20423;-74
2023/11/30 04:05:41;;;;;;;13.75;8.23;;;1.70;69.80;;;;;;4973832;28;20038;-74
2023/11/30 04:08:06;;;;;;;14.10;7.78;;;1.80;68.70;;;;;;4956769;28;20026;-73
2023/11/30 04:10:32;;;;;;;14.25;7.50;;;1.80;68.60;;;;;;4956320;28;20058;-74
2023/11/30 04:12:57;;;;;;;12.38;8.15;;;1.80;67.70;;;;;;4953183;29;20059;-74
2023/11/30 04:15:23;;;;;;;13.40;9.25;;;1.80;67.80;;;;;;4954660;29;20038;-74
2023/11/30 04:17:48;;;;;;;15.43;8.85;;;1.80;68.10;;;;;;4953172;29;20050;-73
2023/11/30 04:20:14;;;;;;;16.23;11.32;;;1.80;68.40;;;;;;4953602;29;20031;-73
2023/11/30 04:22:40;;;;;;;15.52;11.35;;;1.80;68.90;;;;;;4953536;29;20028;-73
2023/11/30 04:25:05;;;;;;;15.32;10.00;;;1.80;69.10;;;;;;4953603;29;20424;-75
2023/11/30 04:27:31;;;;;;;14.05;9.63;;;1.80;69.20;;;;;;4953214;29;20114;-75
2023/11/30 04:29:57;;;;;;;17.80;10.73;;;1.90;69.30;;;;;;4953356;29;20037;-74
2023/11/30 04:32:22;;;;;;;16.25;12.52;;;2.00;69.20;;;;;;4953445;29;20082;-74
2023/11/30 04:34:48;;;;;;;19.15;12.23;;;2.00;69.30;;;;;;4953481;29;20019;-74
2023/11/30 04:37:14;;;;;;;18.45;13.45;;;2.00;68.90;;;;;;4953390;29;20027;-75
2023/11/30 04:39:39;;;;;;;17.95;12.73;;;2.00;69.00;;;;;;4953361;29;20020;-75
2023/11/30 04:42:05;;;;;;;18.65;13.25;;;2.00;69.00;;;;;;4953153;29;20027;-74
2023/11/30 04:44:31;;;;;;;20.55;13.18;;;2.00;69.10;;;;;;4953215;29;20408;-75
2023/11/30 04:46:56;;;;;;;17.58;12.25;;;2.00;69.20;;;;;;4953514;29;20441;-74
2023/11/30 04:49:22;;;;;;;19.88;13.48;;;2.00;69.20;;;;;;4954241;28;20023;-73
2023/11/30 04:51:48;;;;;;;18.90;13.00;;;2.00;69.20;;;;;;4952976;29;20457;-74
2023/11/30 04:54:13;;;;;;;19.75;13.35;;;2.00;69.30;;;;;;4952746;29;20143;-74
2023/11/30 04:56:39;;;;;;;18.10;12.40;;;2.00;69.20;;;;;;4953218;29;20532;-74
2023/11/30 04:59:04;;;;;;;17.35;12.13;;;2.10;69.30;;;;;;4953220;29;20046;-73
2023/11/30 05:01:30;;;;;;;20.35;13.70;;;2.10;69.20;;;;;;4952992;29;20027;-73
2023/11/30 05:03:57;;;;;;;19.88;13.10;;;2.20;69.10;;;;;;4952837;29;20039;-73
2023/11/30 05:06:23;;;;;;;18.92;12.05;;;2.20;68.90;;;;;;4953110;29;20034;-73
2023/11/30 05:08:48;;;;;;;21.08;12.57;;;2.30;68.70;;;;;;4953241;29;20035;-74
2023/11/30 05:11:14;;;;;;;16.58;11.35;;;2.20;68.70;;;;;;4952825;29;20476;-73
2023/11/30 05:13:40;;;;;;;18.52;10.43;;;2.30;69.80;;;;;;4952953;29;20098;-73
2023/11/30 05:16:06;;;;;;;17.17;10.05;;;2.30;68.80;;;;;;4953015;29;20469;-74
2023/11/30 05:18:31;;;;;;;12.82;9.88;;;2.30;69.00;;;;;;4953066;29;20507;-73
2023/11/30 05:20:57;;;;;;;17.40;9.68;;;2.20;69.10;;;;;;4953576;29;20126;-74
2023/11/30 05:23:24;;;;;;;15.43;8.70;;;2.20;69.30;;;;;;4956393;28;20054;-73
2023/11/30 05:25:49;;;;;;;14.95;8.25;;;2.20;69.30;;;;;;4956396;29;20041;-73
2023/11/30 05:28:15;;;;;;;14.30;7.57;;;2.20;69.80;;;;;;4956479;29;20023;-75
2023/11/30 05:30:41;;;;;;;9.70;7.50;;;2.20;70.30;;;;;;4957421;29;20472;-74
2023/11/30 05:33:07;;;;;;;10.50;7.72;;;2.20;70.40;;;;;;4956306;29;20118;-74
2023/11/30 05:35:34;;;;;;;10.70;6.40;;;2.20;70.20;;;;;;4956407;29;20031;-74
2023/11/30 05:38:00;;;;;;;10.75;7.45;;;2.30;70.40;;;;;;4956087;29;20053;-75
2023/11/30 05:40:26;;;;;;;10.00;7.05;;;2.30;70.50;;;;;;4957384;28;20464;-74
2023/11/30 05:42:52;;;;;;;14.75;7.50;;;2.30;70.50;;;;;;4956099;29;20070;-74
2023/11/30 05:45:18;;;;;;;9.02;6.22;;;2.40;70.80;;;;;;4956272;29;20477;-74
2023/11/30 05:47:43;;;;;;;9.70;5.80;;;2.40;71.10;;;;;;4955715;29;20031;-74
2023/11/30 05:50:12;;;;;;;10.63;7.40;;;2.40;71.20;;;;;;4955976;29;20031;-75
2023/11/30 05:52:38;;;;;;;10.18;7.40;;;2.40;71.90;;;;;;4957056;28;20074;-74
2023/11/30 05:55:07;;;;;;;11.27;7.45;;;2.40;72.10;;;;;;4955735;29;20027;-73
2023/11/30 05:57:33;;;;;;;8.40;6.30;;;2.30;72.20;;;;;;4955925;29;20062;-73
2023/11/30 05:59:59;;;;;;;11.40;7.07;;;2.30;72.50;;;;;;4955912;29;20050;-74
2023/11/30 06:02:26;;;;;;;10.73;6.55;;;2.30;72.50;;;;;;4966573;28;20122;-73
2023/11/30 06:04:53;;;;;;;7.88;6.20;;;2.30;72.60;;;;;;4975011;28;20039;-73
2023/11/30 06:07:20;;;;;;;12.15;7.68;;;2.30;72.40;;;;;;4974599;28;20031;-73
2023/11/30 06:09:46;;;;;;;11.25;8.23;;;2.30;72.80;;;;;;4974901;28;20026;-73
2023/11/30 06:12:11;;;;;;;12.18;7.80;;;2.20;71.90;;;;;;4976661;28;20030;-74
2023/11/30 06:14:37;;;;;;;13.13;8.38;;;2.10;72.30;;;;;;4978026;28;20072;-74
2023/11/30 06:17:04;;;;;;;13.27;9.23;;;2.10;72.70;;;;;;4977975;28;20448;-74
2023/11/30 06:19:30;;;;;;;15.88;9.10;;;2.10;72.50;;;;;;4977835;28;20033;-76
2023/11/30 06:21:56;;;;;;;11.75;7.97;;;2.10;73.00;;;;;;4977600;28;20418;-73
2023/11/30 06:24:21;;;;;;;14.52;10.48;;;2.10;73.10;;;;;;4977797;28;20062;-76
2023/11/30 06:26:47;;;;;;;16.45;11.70;;;2.00;73.40;;;;;;4977366;28;20041;-74
2023/11/30 06:29:13;;;;;;;14.60;10.35;;;2.00;73.70;;;;;;4994731;28;20372;-73
2023/11/30 06:31:39;;;;;;;16.13;11.52;;;2.00;74.10;;;;;;4994530;28;20356;-74
2023/11/30 06:34:05;;;;;;;16.38;11.93;;;2.00;74.20;;;;;;4976397;28;20030;-73
2023/11/30 06:36:31;;;;;;;15.82;10.40;;;1.90;75.10;;;;;;4977656;28;20539;-74
2023/11/30 06:38:56;;;;;;;18.30;10.90;;;1.90;75.70;;;;;;4977604;28;20094;-73
2023/11/30 06:41:22;;;;;;;18.48;10.82;;;1.70;76.00;;;;;;4977050;28;20034;-73
2023/11/30 06:43:48;;;;;;;18.95;11.30;;;1.70;76.40;;;;;;4977315;28;20038;-74
2023/11/30 06:46:23;;;;;;;19.83;12.00;;;1.70;76.70;;;;;;4977337;28;20014;-73
2023/11/30 06:48:51;;;;;;;15.52;11.02;;;1.70;77.00;;;;;;4976855;28;20125;-74
2023/11/30 06:51:17;;;;;;;17.88;10.25;;;1.70;76.90;;;;;;4977058;28;20598;-74
2023/11/30 06:53:43;;;;;;;15.63;9.93;;;1.80;76.80;;;;;;4977240;28;20069;-73
2023/11/30 06:56:12;;;;;;;15.88;9.82;;;1.80;76.50;;;;;;4977281;28;20077;-75
2023/11/30 06:58:39;;;;;;;17.35;10.45;;;1.80;76.40;;;;;;4977263;28;20121;-74
2023/11/30 07:01:06;;;;;;;15.05;10.45;;;1.80;76.30;;;;;;4977095;28;20185;-74
2023/11/30 07:03:31;;;;;;;15.38;10.18;;;1.80;76.40;;;;;;4976664;28;20037;-74
2023/11/30 07:05:57;;;;;;;14.98;9.25;;;1.80;76.10;;;;;;4977210;28;20456;-73
2023/11/30 07:08:23;;;;;;;15.10;10.52;;;1.80;75.90;;;;;;4976930;28;20475;-74
2023/11/30 07:10:48;;;;;;;13.48;9.15;;;1.90;75.80;;;;;;4976995;28;20038;-74
2023/11/30 07:13:14;;;;;;;12.93;8.55;;;1.80;75.70;;;;;;4993831;28;20042;-74
2023/11/30 07:15:40;;;;;;;14.38;9.20;;;1.80;75.90;;;;;;4976840;28;20029;-73
2023/11/30 07:18:06;;;;;;;12.75;8.15;;;1.80;76.00;;;;;;4977018;28;20023;-73
2023/11/30 07:20:31;;;;;;;11.57;7.20;;;1.90;75.90;;;;;;4976573;28;20034;-74
2023/11/30 07:22:58;;;;;;;11.52;7.13;;;1.90;75.80;;;;;;4976607;28;20026;-74
2023/11/30 07:25:23;;;;;;;11.68;7.68;;;1.90;75.70;;;;;;4976928;28;20031;-74
2023/11/30 07:27:53;;;;;;;10.82;6.40;;;2.00;75.70;;;;;;4976878;28;20029;-73
2023/11/30 07:30:19;;;;;;;10.98;7.40;;;2.10;75.40;;;;;;4976327;28;20442;-73
2023/11/30 07:32:44;;;;;;;9.57;6.80;;;2.10;76.10;;;;;;4976688;28;20026;-73
2023/11/30 07:35:10;;;;;;;9.82;5.88;;;2.10;75.10;;;;;;4975954;28;20110;-73
2023/11/30 07:37:35;;;;;;;8.43;5.72;;;2.20;75.30;;;;;;4976627;28;20141;-74
2023/11/30 07:40:01;;;;;;;8.82;5.78;;;2.20;75.40;;;;;;4976036;28;20025;-74
2023/11/30 07:42:26;;;;;;;12.43;7.35;;;2.20;75.40;;;;;;4993724;28;20029;-73
2023/11/30 07:44:54;;;;;;;12.60;7.53;;;2.20;75.40;;;;;;4993214;28;20042;-73
2023/11/30 07:47:20;;;;;;;14.65;7.13;;;2.30;75.40;;;;;;4975598;28;20037;-73
2023/11/30 07:49:47;;;;;;;10.93;7.03;;;2.30;75.50;;;;;;4976333;28;20052;-75
2023/11/30 07:52:13;;;;;;;12.07;7.13;;;2.30;75.40;;;;;;4976380;28;20113;-74
2023/11/30 07:54:39;;;;;;;12.95;7.18;;;2.30;75.40;;;;;;4976110;28;20406;-74
2023/11/30 07:57:05;;;;;;;10.70;6.68;;;2.40;75.40;;;;;;4975970;28;20467;-75
2023/11/30 07:59:31;;;;;;;9.98;6.97;;;2.40;75.20;;;;;;4975454;28;20156;-74
2023/11/30 08:01:57;;;;;;;9.15;6.35;;;2.40;75.10;;;;;;4975880;28;20101;-74
2023/11/30 08:04:23;;;;;;;10.20;6.63;;;2.40;75.40;;;;;;4993311;28;20116;-75
2023/11/30 08:06:49;;;;;;;10.43;7.55;;;2.50;75.60;;;;;;4977791;28;20058;-75
2023/11/30 08:09:14;;;;;;;9.55;6.63;;;2.40;75.50;;;;;;4978716;28;20022;-75
2023/11/30 08:11:40;;;;;;;10.60;7.43;;;2.40;75.50;;;;;;4977348;28;20463;-75
2023/11/30 08:14:07;;;;;;;11.57;7.55;;;2.50;75.90;;;;;;4972927;28;20050;-74
2023/11/30 08:16:33;;;;;;;10.38;6.68;;;2.50;76.10;;;;;;4972688;28;20031;-73
2023/11/30 08:18:59;;;;;;;8.35;5.55;;;2.50;76.40;;;;;;4972781;28;20129;-74
2023/11/30 08:21:25;;;;;;;6.13;4.72;;;2.40;77.20;;;;;;4972741;28;20174;-74
2023/11/30 08:23:50;;;;;;;8.95;5.32;;;2.40;78.10;;;;;;4972655;28;20035;-74
2023/11/30 08:26:16;;;;;;;10.02;4.82;;;2.20;79.00;;;;;;4972487;28;20069;-75
2023/11/30 08:28:44;;;;;;;7.70;4.85;;;2.20;79.90;;;;;;4972275;28;20046;-75
2023/11/30 08:31:11;;;;;;;6.82;5.25;;;2.10;80.40;;;;;;4974006;28;20034;-76
2023/11/30 08:33:36;;;;;;;8.43;5.03;;;2.20;80.80;;;;;;4972959;28;20134;-75
2023/11/30 08:36:04;;;;;;;7.95;5.55;;;2.20;80.90;;;;;;4972674;28;20113;-75
2023/11/30 08:38:33;;;;;;;7.45;5.07;;;2.20;81.00;;;;;;4972900;28;20029;-75
2023/11/30 08:40:59;;;;;;;7.55;5.28;;;2.20;81.00;;;;;;4972438;28;20101;-75
2023/11/30 08:43:25;;;;;;;8.43;5.78;;;2.30;81.40;;;;;;4972654;28;20464;-75
2023/11/30 08:45:50;;;;;;;9.48;5.85;;;2.30;81.50;;;;;;4972538;28;20066;-75
2023/11/30 08:48:16;;;;;;;12.05;7.30;;;2.20;81.60;;;;;;4972249;28;20052;-75
2023/11/30 08:50:42;;;;;;;8.57;6.25;;;2.30;82.10;;;;;;4972260;28;20089;-75
2023/11/30 08:53:07;;;;;;;11.13;6.53;;;2.20;82.20;;;;;;4972575;28;20117;-76
2023/11/30 08:55:33;;;;;;;10.68;5.60;;;2.30;82.40;;;;;;4972410;28;20328;-75
2023/11/30 08:57:59;;;;;;;12.60;5.63;;;2.30;82.60;;;;;;4974291;28;20531;-75
2023/11/30 09:00:25;;;;;;;9.07;6.00;;;2.30;82.70;;;;;;4960135;28;20137;-77
2023/11/30 09:02:51;;;;;;;10.13;6.55;;;2.20;82.80;;;;;;4975902;28;20400;-74
2023/11/30 09:05:18;;;;;;;11.30;6.43;;;2.20;83.00;;;;;;4976002;28;20383;-75
2023/11/30 09:07:44;;;;;;;14.23;6.13;;;2.10;83.60;;;;;;4975713;28;20019;-75
2023/11/30 09:10:09;;;;;;;7.80;5.22;;;2.10;84.00;;;;;;4976139;28;20031;-75
2023/11/30 09:12:36;;;;;;;21.75;5.60;;;2.10;84.00;;;;;;4975750;28;20100;-78
2023/11/30 09:15:08;;;;;;;12.38;5.57;;;2.30;86.60;;;;;;4975895;28;20479;-74
2023/11/30 09:17:34;;;;;;;10.07;5.40;;;2.80;91.10;;;;;;4975960;28;20031;-76
2023/11/30 09:20:00;;;;;;;10.20;5.90;;;3.50;90.50;;;;;;4975819;28;20114;-73
2023/11/30 09:22:28;;;;;;;9.23;5.78;;;3.80;84.10;;;;;;4976658;28;20456;-76
2023/11/30 09:24:54;;;;;;;8.70;5.22;;;4.00;80.50;;;;;;4976947;28;20117;-76
2023/11/30 09:27:20;;;;;;;11.10;5.32;;;4.10;80.20;;;;;;4975370;28;20050;-75
2023/11/30 09:29:45;;;;;;;13.15;5.95;;;4.30;77.80;;;;;;4975551;28;20030;-76
2023/11/30 09:32:11;;;;;;;11.80;5.00;;;4.50;77.60;;;;;;4975617;28;20026;-75
2023/11/30 09:34:36;;;;;;;12.73;4.78;;;4.60;77.20;;;;;;4959504;28;20546;-74
2023/11/30 09:37:02;;;;;;;7.05;4.00;;;4.80;75.10;;;;;;4975105;28;20061;-74
2023/11/30 09:39:29;;;;;;;6.07;4.28;;;5.20;74.80;;;;;;4975621;28;20484;-76
2023/11/30 09:41:59;;;;;;;9.77;4.32;;;5.50;73.80;;;;;;4970669;28;20024;-75
2023/11/30 09:44:25;;;;;;;8.00;4.20;;;5.60;73.10;;;;;;4972369;28;20428;-76
2023/11/30 09:46:51;;;;;;;6.18;3.75;;;5.90;72.20;;;;;;4974857;28;20364;-74
2023/11/30 09:49:17;;;;;;;5.68;3.17;;;6.20;70.70;;;;;;4974956;28;20033;-76
2023/11/30 09:51:50;;;;;;;5.50;3.80;;;6.40;68.80;;;;;;4974933;28;20065;-75
2023/11/30 09:54:16;;;;;;;6.55;3.65;;;6.60;68.80;;;;;;4975020;28;20039;-76
2023/11/30 09:56:45;;;;;;;6.72;3.25;;;6.60;66.50;;;;;;4976208;28;20384;-81
2023/11/30 09:59:12;;;;;;;4.18;2.60;;;6.20;66.70;;;;;;4961783;28;20129;-79
2023/11/30 10:01:40;;;;;;;5.30;3.05;;;5.60;68.90;;;;;;4985481;28;20114;-74
2023/11/30 10:04:13;;;;;;;6.45;2.45;;;5.00;71.40;;;;;;4975696;28;20043;-74
2023/11/30 10:06:39;;;;;;;8.65;3.50;;;4.50;73.60;;;;;;4975024;28;20050;-74
2023/11/30 10:09:07;;;;;;;4.75;3.03;;;4.30;75.40;;;;;;4973927;28;20030;-74
2023/11/30 10:11:34;;;;;;;6.07;3.20;;;3.90;76.90;;;;;;4974846;28;20372;-74
2023/11/30 10:14:00;;;;;;;4.50;2.65;;;3.80;77.60;;;;;;4974730;28;20050;-73
2023/11/30 10:16:26;;;;;;;7.95;2.63;;;3.70;78.70;;;;;;4975898;28;20023;-75
2023/11/30 10:18:53;;;;;;;6.57;2.15;;;3.70;79.10;;;;;;4975883;28;20392;-75
2023/11/30 10:21:21;;;;;;;2.88;2.17;;;3.60;79.40;;;;;;4974696;28;20023;-74
2023/11/30 10:23:47;;;;;;;3.50;1.95;;;3.50;79.60;;;;;;4974791;28;20522;-74
2023/11/30 10:26:16;;;;;;;4.15;2.38;;;3.50;80.00;;;;;;4975404;28;20034;-75
2023/11/30 10:28:42;;;;;;;2.83;2.08;;;3.40;80.30;;;;;;4975920;28;20393;-74
2023/11/30 10:31:08;;;;;;;6.28;2.80;;;3.30;80.40;;;;;;4975896;28;20094;-74
2023/11/30 10:33:40;;;;;;;6.18;4.07;;;3.30;80.50;;;;;;4975549;28;20078;-74
2023/11/30 10:36:07;;;;;;;5.45;2.70;;;3.20;80.40;;;;;;4974267;28;20034;-74
2023/11/30 10:38:37;;;;;;;5.25;4.28;;;3.30;80.70;;;;;;4974464;28;20031;-74
2023/11/30 10:41:11;;;;;;;5.63;2.35;;;3.30;80.40;;;;;;4974329;28;20213;-75
2023/11/30 10:43:41;;;;;;;3.50;2.78;;;3.20;80.30;;;;;;4974253;28;20022;-75
2023/11/30 10:46:07;;;;;;;8.32;7.53;;;3.20;80.40;;;;;;4973905;28;20039;-75
2023/11/30 10:48:38;;;;;;;6.47;5.88;;;3.30;80.50;;;;;;4973605;28;20034;-73
2023/11/30 10:51:07;;;;;;;3.40;2.13;;;3.30;80.10;;;;;;4974074;28;20472;-74
2023/11/30 10:54:04;;;;;;;4.13;2.28;;;3.30;79.70;;;;;;4974034;28;20030;-73
2023/11/30 10:56:32;;;;;;;5.18;3.53;;;3.40;80.30;;;;;;4973927;28;20637;-73
2023/11/30 10:59:00;;;;;;;5.35;3.03;;;3.40;80.30;;;;;;4974189;28;20127;-73
2023/11/30 11:01:29;;;;;;;3.03;2.20;;;3.50;80.30;;;;;;4973794;28;20109;-75
2023/11/30 11:03:55;;;;;;;4.35;2.08;;;3.60;79.80;;;;;;4973728;28;20479;-75
2023/11/30 11:06:25;;;;;;;2.03;1.45;;;3.60;79.30;;;;;;4975087;28;20019;-76
2023/11/30 11:09:02;;;;;;;2.88;1.77;;;3.60;78.90;;;;;;4974107;28;20510;-74
2023/11/30 11:11:30;;;;;;;2.45;1.45;;;3.70;79.00;;;;;;4973994;28;20065;-74
2023/11/30 11:13:55;;;;;;;2.03;1.50;;;3.70;78.90;;;;;;4974322;28;20507;-74
2023/11/30 11:16:33;;;;;;;2.13;1.50;;;3.70;78.90;;;;;;4975616;28;20037;-75
2023/11/30 11:19:05;;;;;;;1.98;1.38;;;3.70;78.60;;;;;;4976385;28;20061;-75
2023/11/30 11:21:36;;;;;;;3.03;1.23;;;3.80;78.50;;;;;;4973725;28;20062;-74
2023/11/30 11:24:03;;;;;;;2.47;1.40;;;3.90;78.40;;;;;;4973355;28;20030;-74
2023/11/30 11:26:47;;;;;;;2.67;1.80;;;3.80;78.60;;;;;;4973083;28;20488;-74
2023/11/30 11:29:16;;;;;;;3.60;1.77;;;3.90;78.80;;;;;;4973347;28;20089;-73
2023/11/30 11:31:42;;;;;;;2.63;1.88;;;3.90;79.00;;;;;;4974156;28;20019;-73
2023/11/30 11:34:09;;;;;;;3.30;2.08;;;4.00;79.00;;;;;;4973295;28;20582;-73
2023/11/30 11:36:36;;;;;;;5.97;2.15;;;4.10;79.00;;;;;;4974277;28;20492;-74
2023/11/30 11:39:03;;;;;;;3.60;2.10;;;4.10;79.00;;;;;;4974311;28;20126;-74
2023/11/30 11:41:28;;;;;;;2.63;1.90;;;4.10;78.70;;;;;;4974074;28;20068;-74
2023/11/30 11:43:54;;;;;;;4.53;2.47;;;4.10;78.70;;;;;;4974039;28;20075;-74
2023/11/30 11:46:19;;;;;;;7.40;2.70;;;4.00;79.10;;;;;;4973176;28;20026;-73
2023/11/30 11:48:46;;;;;;;5.32;2.65;;;4.00;79.50;;;;;;4972451;28;20082;-73
2023/11/30 11:51:12;;;;;;;5.13;2.70;;;3.90;79.60;;;;;;4973329;28;20030;-74
2023/11/30 11:53:39;;;;;;;5.72;3.00;;;3.80;80.10;;;;;;4973422;28;20038;-74
2023/11/30 11:56:07;;;;;;;4.28;3.00;;;3.80;80.50;;;;;;4973578;28;20460;-74
2023/11/30 11:58:32;;;;;;;4.22;2.58;;;3.80;80.40;;;;;;4973439;28;20031;-74
2023/11/30 12:00:58;;;;;;;4.60;2.13;;;3.80;80.10;;;;;;4973952;28;20049;-74
2023/11/30 12:03:23;;;;;;;2.75;2.10;;;3.90;79.80;;;;;;4972056;28;20050;-75
2023/11/30 12:05:49;;;;;;;4.13;2.03;;;3.90;80.00;;;;;;4971902;28;20570;-75
2023/11/30 12:08:15;;;;;;;2.90;2.35;;;4.00;79.80;;;;;;4972071;28;20102;-74
2023/11/30 12:10:46;;;;;;;3.72;2.00;;;4.00;79.50;;;;;;4972068;28;20505;-74
2023/11/30 12:13:13;;;;;;;4.93;2.80;;;4.00;79.60;;;;;;4983603;28;20053;-75
2023/11/30 12:15:39;;;;;;;3.85;2.80;;;4.00;79.60;;;;;;4975216;28;20049;-77
2023/11/30 12:18:05;;;;;;;5.95;3.08;;;4.00;79.60;;;;;;4974961;28;20068;-74
2023/11/30 12:20:31;;;;;;;9.10;3.67;;;4.10;79.80;;;;;;4975384;28;20083;-75
2023/11/30 12:22:57;;;;;;;5.53;3.53;;;4.10;80.10;;;;;;4975470;28;20026;-78
2023/11/30 12:25:24;;;;;;;6.18;3.78;;;4.20;79.80;;;;;;4992937;28;20035;-77
2023/11/30 12:27:50;;;;;;;19.38;10.73;;;4.20;79.70;;;;;;4992931;28;20022;-77
2023/11/30 12:30:16;;;;;;;24.02;12.70;;;4.20;79.70;;;;;;4992797;28;20526;-74
2023/11/30 12:32:42;;;;;;;22.13;11.85;;;4.20;80.10;;;;;;4977003;28;20502;-73
2023/11/30 12:35:08;;;;;;;19.05;11.02;;;4.20;80.30;;;;;;4979209;28;20046;-74
2023/11/30 12:37:35;;;;;;;16.70;10.52;;;4.20;80.80;;;;;;4979052;28;20483;-76
2023/11/30 12:40:00;;;;;;;20.92;10.77;;;4.10;81.10;;;;;;4979025;28;20225;-75
2023/11/30 12:42:27;;;;;;;19.27;10.98;;;3.90;81.60;;;;;;4996650;28;20057;-76
2023/11/30 12:44:52;;;;;;;16.85;10.13;;;3.90;81.90;;;;;;4979177;28;20042;-74